Terminal Aerodrome Forecast
Issued by NWS

Home | Current Version | Previous Version | Text Only | Print | Product List | Glossary On
Versions: 1 2 3 4 5 6 7 8 9 10 11 12
704
FTUS45 KABQ 241725
TAFFMN
TAF
KFMN 241725Z 2418/2518 27010KT P6SM SKC
     FM242000 29015G23KT P6SM FEW250
     FM250200 32009KT P6SM SCT150
     FM250800 03006KT P6SM SCT150
     FM251400 09008KT P6SM SCT250=

USA.gov is the U.S. government's official web portal to all federal, state and local government web resources and services.